sensor_id;sensor_type;location;lat;lon;timestamp;P1;durP1;ratioP1;P2;durP2;ratioP2
28547;SDS011;15750;49.600;8.746;2022-07-26T00:01:35;3.67;;;2.00;;
28547;SDS011;15750;49.600;8.746;2022-07-26T00:04:23;2.63;;;1.77;;
28547;SDS011;15750;49.600;8.746;2022-07-26T00:07:10;2.22;;;2.03;;
28547;SDS011;15750;49.600;8.746;2022-07-26T00:09:59;7.53;;;1.75;;
28547;SDS011;15750;49.600;8.746;2022-07-26T00:12:47;2.50;;;2.20;;
28547;SDS011;15750;49.600;8.746;2022-07-26T00:15:34;4.13;;;1.90;;
28547;SDS011;15750;49.600;8.746;2022-07-26T00:18:21;1.95;;;1.80;;
28547;SDS011;15750;49.600;8.746;2022-07-26T00:21:09;6.38;;;2.00;;
28547;SDS011;15750;49.600;8.746;2022-07-26T00:23:56;2.28;;;1.80;;
28547;SDS011;15750;49.600;8.746;2022-07-26T00:26:44;2.28;;;2.03;;
28547;SDS011;15750;49.600;8.746;2022-07-26T00:29:32;2.20;;;1.92;;
28547;SDS011;15750;49.600;8.746;2022-07-26T00:32:20;2.22;;;2.03;;
28547;SDS011;15750;49.600;8.746;2022-07-26T00:35:07;3.25;;;1.80;;
28547;SDS011;15750;49.600;8.746;2022-07-26T00:37:56;2.83;;;2.08;;
28547;SDS011;15750;49.600;8.746;2022-07-26T00:40:43;3.53;;;2.05;;
28547;SDS011;15750;49.600;8.746;2022-07-26T00:43:32;2.20;;;2.00;;
28547;SDS011;15750;49.600;8.746;2022-07-26T00:46:20;5.25;;;2.22;;
28547;SDS011;15750;49.600;8.746;2022-07-26T00:49:07;1.90;;;1.80;;
28547;SDS011;15750;49.600;8.746;2022-07-26T00:51:56;2.05;;;1.83;;
28547;SDS011;15750;49.600;8.746;2022-07-26T00:54:44;2.03;;;1.80;;
28547;SDS011;15750;49.600;8.746;2022-07-26T00:57:32;2.20;;;2.00;;
28547;SDS011;15750;49.600;8.746;2022-07-26T01:00:22;2.15;;;1.90;;
28547;SDS011;15750;49.600;8.746;2022-07-26T01:03:11;3.80;;;2.00;;
28547;SDS011;15750;49.600;8.746;2022-07-26T01:05:58;3.33;;;2.10;;
28547;SDS011;15750;49.600;8.746;2022-07-26T01:08:46;3.85;;;2.20;;
28547;SDS011;15750;49.600;8.746;2022-07-26T01:11:33;3.95;;;2.17;;
28547;SDS011;15750;49.600;8.746;2022-07-26T01:14:21;3.10;;;2.20;;
28547;SDS011;15750;49.600;8.746;2022-07-26T01:17:10;2.63;;;1.85;;
28547;SDS011;15750;49.600;8.746;2022-07-26T01:19:59;3.17;;;1.85;;
28547;SDS011;15750;49.600;8.746;2022-07-26T01:22:48;3.80;;;1.98;;
28547;SDS011;15750;49.600;8.746;2022-07-26T01:25:36;2.22;;;1.92;;
28547;SDS011;15750;49.600;8.746;2022-07-26T01:28:28;3.35;;;2.20;;
28547;SDS011;15750;49.600;8.746;2022-07-26T01:31:15;2.90;;;2.00;;
28547;SDS011;15750;49.600;8.746;2022-07-26T01:34:03;2.30;;;2.10;;
28547;SDS011;15750;49.600;8.746;2022-07-26T01:36:51;2.25;;;2.05;;
28547;SDS011;15750;49.600;8.746;2022-07-26T01:39:42;2.78;;;2.10;;
28547;SDS011;15750;49.600;8.746;2022-07-26T01:42:29;2.63;;;2.25;;
28547;SDS011;15750;49.600;8.746;2022-07-26T01:45:17;5.30;;;2.47;;
28547;SDS011;15750;49.600;8.746;2022-07-26T01:48:04;4.00;;;2.20;;
28547;SDS011;15750;49.600;8.746;2022-07-26T01:50:52;2.22;;;2.03;;
28547;SDS011;15750;49.600;8.746;2022-07-26T01:53:39;2.80;;;1.83;;
28547;SDS011;15750;49.600;8.746;2022-07-26T01:56:30;1.92;;;1.83;;
28547;SDS011;15750;49.600;8.746;2022-07-26T01:59:17;2.55;;;2.00;;
28547;SDS011;15750;49.600;8.746;2022-07-26T02:02:05;5.13;;;1.67;;
28547;SDS011;15750;49.600;8.746;2022-07-26T02:04:52;2.92;;;2.20;;
28547;SDS011;15750;49.600;8.746;2022-07-26T02:07:46;5.35;;;2.30;;
28547;SDS011;15750;49.600;8.746;2022-07-26T02:10:34;3.30;;;2.60;;
28547;SDS011;15750;49.600;8.746;2022-07-26T02:13:55;2.15;;;2.00;;
28547;SDS011;15750;49.600;8.746;2022-07-26T02:16:43;3.45;;;1.95;;
28547;SDS011;15750;49.600;8.746;2022-07-26T02:19:30;2.28;;;2.08;;
28547;SDS011;15750;49.600;8.746;2022-07-26T02:22:17;2.55;;;2.35;;
28547;SDS011;15750;49.600;8.746;2022-07-26T02:25:05;2.22;;;2.03;;
28547;SDS011;15750;49.600;8.746;2022-07-26T02:27:53;3.80;;;2.08;;
28547;SDS011;15750;49.600;8.746;2022-07-26T02:30:41;3.53;;;2.28;;
28547;SDS011;15750;49.600;8.746;2022-07-26T02:33:30;2.90;;;2.20;;
28547;SDS011;15750;49.600;8.746;2022-07-26T02:36:17;2.25;;;2.00;;
28547;SDS011;15750;49.600;8.746;2022-07-26T02:39:05;2.42;;;2.20;;
28547;SDS011;15750;49.600;8.746;2022-07-26T02:41:52;2.47;;;2.20;;
28547;SDS011;15750;49.600;8.746;2022-07-26T02:44:40;2.47;;;2.05;;
28547;SDS011;15750;49.600;8.746;2022-07-26T02:47:29;9.45;;;2.28;;
28547;SDS011;15750;49.600;8.746;2022-07-26T02:50:17;2.90;;;2.15;;
28547;SDS011;15750;49.600;8.746;2022-07-26T02:53:05;3.35;;;2.30;;
28547;SDS011;15750;49.600;8.746;2022-07-26T02:55:52;4.07;;;2.25;;
28547;SDS011;15750;49.600;8.746;2022-07-26T02:58:39;2.13;;;1.92;;
28547;SDS011;15750;49.600;8.746;2022-07-26T03:01:27;2.33;;;2.13;;
28547;SDS011;15750;49.600;8.746;2022-07-26T03:04:16;2.45;;;2.25;;
28547;SDS011;15750;49.600;8.746;2022-07-26T03:07:03;2.60;;;2.38;;
28547;SDS011;15750;49.600;8.746;2022-07-26T03:09:50;2.53;;;1.98;;
28547;SDS011;15750;49.600;8.746;2022-07-26T03:12:37;4.70;;;2.40;;
28547;SDS011;15750;49.600;8.746;2022-07-26T03:15:24;2.33;;;2.13;;
28547;SDS011;15750;49.600;8.746;2022-07-26T03:18:12;2.85;;;2.20;;
28547;SDS011;15750;49.600;8.746;2022-07-26T03:21:01;2.28;;;2.08;;
28547;SDS011;15750;49.600;8.746;2022-07-26T03:23:48;2.63;;;2.22;;
28547;SDS011;15750;49.600;8.746;2022-07-26T03:26:36;2.40;;;2.00;;
28547;SDS011;15750;49.600;8.746;2022-07-26T03:29:23;2.95;;;2.20;;
28547;SDS011;15750;49.600;8.746;2022-07-26T03:32:10;2.15;;;2.05;;
28547;SDS011;15750;49.600;8.746;2022-07-26T03:34:57;3.60;;;2.30;;
28547;SDS011;15750;49.600;8.746;2022-07-26T03:37:46;2.50;;;2.30;;
28547;SDS011;15750;49.600;8.746;2022-07-26T03:40:33;3.30;;;2.20;;
28547;SDS011;15750;49.600;8.746;2022-07-26T03:43:21;3.42;;;1.95;;
28547;SDS011;15750;49.600;8.746;2022-07-26T03:46:08;2.50;;;2.30;;
28547;SDS011;15750;49.600;8.746;2022-07-26T03:48:55;2.38;;;2.17;;
28547;SDS011;15750;49.600;8.746;2022-07-26T03:51:43;4.65;;;2.88;;
28547;SDS011;15750;49.600;8.746;2022-07-26T03:54:31;3.50;;;2.20;;
28547;SDS011;15750;49.600;8.746;2022-07-26T03:57:19;3.90;;;2.55;;
28547;SDS011;15750;49.600;8.746;2022-07-26T04:00:06;2.28;;;2.10;;
28547;SDS011;15750;49.600;8.746;2022-07-26T04:02:55;4.70;;;2.90;;
28547;SDS011;15750;49.600;8.746;2022-07-26T04:05:42;3.33;;;2.30;;
28547;SDS011;15750;49.600;8.746;2022-07-26T04:08:33;2.38;;;2.17;;
28547;SDS011;15750;49.600;8.746;2022-07-26T04:11:22;2.28;;;2.13;;
28547;SDS011;15750;49.600;8.746;2022-07-26T04:14:12;2.40;;;2.20;;
28547;SDS011;15750;49.600;8.746;2022-07-26T04:16:59;2.42;;;2.20;;
28547;SDS011;15750;49.600;8.746;2022-07-26T04:19:47;2.35;;;2.15;;
28547;SDS011;15750;49.600;8.746;2022-07-26T04:22:35;2.92;;;2.45;;
28547;SDS011;15750;49.600;8.746;2022-07-26T04:25:24;3.42;;;2.33;;
28547;SDS011;15750;49.600;8.746;2022-07-26T04:28:41;2.80;;;2.30;;
28547;SDS011;15750;49.600;8.746;2022-07-26T04:31:28;2.50;;;2.30;;
28547;SDS011;15750;49.600;8.746;2022-07-26T04:34:20;2.40;;;2.20;;
28547;SDS011;15750;49.600;8.746;2022-07-26T04:37:08;2.85;;;2.13;;
28547;SDS011;15750;49.600;8.746;2022-07-26T04:39:55;3.17;;;2.60;;
28547;SDS011;15750;49.600;8.746;2022-07-26T04:42:42;3.85;;;2.53;;
28547;SDS011;15750;49.600;8.746;2022-07-26T04:45:31;3.83;;;2.55;;
28547;SDS011;15750;49.600;8.746;2022-07-26T04:48:18;2.88;;;2.47;;
28547;SDS011;15750;49.600;8.746;2022-07-26T04:51:06;2.45;;;2.25;;
28547;SDS011;15750;49.600;8.746;2022-07-26T04:53:53;4.38;;;2.47;;
28547;SDS011;15750;49.600;8.746;2022-07-26T04:56:40;3.72;;;2.78;;
28547;SDS011;15750;49.600;8.746;2022-07-26T04:59:27;2.95;;;2.40;;
28547;SDS011;15750;49.600;8.746;2022-07-26T05:02:18;3.53;;;2.40;;
28547;SDS011;15750;49.600;8.746;2022-07-26T05:05:06;4.00;;;2.30;;
28547;SDS011;15750;49.600;8.746;2022-07-26T05:07:54;2.83;;;2.47;;
28547;SDS011;15750;49.600;8.746;2022-07-26T05:10:44;2.90;;;2.60;;
28547;SDS011;15750;49.600;8.746;2022-07-26T05:13:39;2.47;;;2.25;;
28547;SDS011;15750;49.600;8.746;2022-07-26T05:16:26;2.60;;;2.40;;
28547;SDS011;15750;49.600;8.746;2022-07-26T05:19:14;2.55;;;2.38;;
28547;SDS011;15750;49.600;8.746;2022-07-26T05:22:01;3.05;;;2.22;;
28547;SDS011;15750;49.600;8.746;2022-07-26T05:24:49;4.32;;;2.40;;
28547;SDS011;15750;49.600;8.746;2022-07-26T05:27:36;2.92;;;2.63;;
28547;SDS011;15750;49.600;8.746;2022-07-26T05:30:25;2.42;;;2.13;;
28547;SDS011;15750;49.600;8.746;2022-07-26T05:33:13;3.17;;;2.22;;
28547;SDS011;15750;49.600;8.746;2022-07-26T05:36:02;3.42;;;2.75;;
28547;SDS011;15750;49.600;8.746;2022-07-26T05:38:49;3.25;;;2.40;;
28547;SDS011;15750;49.600;8.746;2022-07-26T05:41:37;3.25;;;2.55;;
28547;SDS011;15750;49.600;8.746;2022-07-26T05:44:24;3.15;;;2.85;;
28547;SDS011;15750;49.600;8.746;2022-07-26T05:47:14;3.72;;;2.25;;
28547;SDS011;15750;49.600;8.746;2022-07-26T05:50:01;3.25;;;2.72;;
28547;SDS011;15750;49.600;8.746;2022-07-26T05:52:51;2.65;;;2.33;;
28547;SDS011;15750;49.600;8.746;2022-07-26T05:55:38;2.40;;;2.20;;
28547;SDS011;15750;49.600;8.746;2022-07-26T05:58:25;3.47;;;2.17;;
28547;SDS011;15750;49.600;8.746;2022-07-26T06:01:13;5.85;;;2.53;;
28547;SDS011;15750;49.600;8.746;2022-07-26T06:04:03;4.63;;;2.30;;
28547;SDS011;15750;49.600;8.746;2022-07-26T06:06:53;2.72;;;1.80;;
28547;SDS011;15750;49.600;8.746;2022-07-26T06:09:42;3.05;;;1.85;;
28547;SDS011;15750;49.600;8.746;2022-07-26T06:12:30;3.80;;;1.83;;
28547;SDS011;15750;49.600;8.746;2022-07-26T06:15:17;5.25;;;1.75;;
28547;SDS011;15750;49.600;8.746;2022-07-26T06:18:05;1.45;;;1.35;;
28547;SDS011;15750;49.600;8.746;2022-07-26T06:20:52;7.95;;;1.98;;
28547;SDS011;15750;49.600;8.746;2022-07-26T06:23:46;3.80;;;1.63;;
28547;SDS011;15750;49.600;8.746;2022-07-26T06:26:35;4.75;;;1.77;;
28547;SDS011;15750;49.600;8.746;2022-07-26T06:29:22;4.85;;;1.73;;
28547;SDS011;15750;49.600;8.746;2022-07-26T06:32:16;3.97;;;1.90;;
28547;SDS011;15750;49.600;8.746;2022-07-26T06:35:04;2.55;;;1.75;;
28547;SDS011;15750;49.600;8.746;2022-07-26T06:37:52;2.15;;;1.80;;
28547;SDS011;15750;49.600;8.746;2022-07-26T06:40:39;2.65;;;1.60;;
28547;SDS011;15750;49.600;8.746;2022-07-26T06:43:28;3.05;;;1.50;;
28547;SDS011;15750;49.600;8.746;2022-07-26T06:46:15;3.22;;;1.85;;
28547;SDS011;15750;49.600;8.746;2022-07-26T06:49:05;1.67;;;1.52;;
28547;SDS011;15750;49.600;8.746;2022-07-26T06:51:52;1.92;;;1.73;;
28547;SDS011;15750;49.600;8.746;2022-07-26T06:54:41;3.20;;;1.73;;
28547;SDS011;15750;49.600;8.746;2022-07-26T06:57:29;3.38;;;1.80;;
28547;SDS011;15750;49.600;8.746;2022-07-26T07:00:18;2.28;;;1.60;;
28547;SDS011;15750;49.600;8.746;2022-07-26T07:03:05;3.53;;;1.80;;
28547;SDS011;15750;49.600;8.746;2022-07-26T07:05:53;5.28;;;1.85;;
28547;SDS011;15750;49.600;8.746;2022-07-26T07:08:40;1.80;;;1.70;;
28547;SDS011;15750;49.600;8.746;2022-07-26T07:11:29;1.63;;;1.48;;
28547;SDS011;15750;49.600;8.746;2022-07-26T07:14:16;4.32;;;1.80;;
28547;SDS011;15750;49.600;8.746;2022-07-26T07:17:05;3.55;;;1.95;;
28547;SDS011;15750;49.600;8.746;2022-07-26T07:19:57;6.13;;;1.90;;
28547;SDS011;15750;49.600;8.746;2022-07-26T07:22:45;1.85;;;1.75;;
28547;SDS011;15750;49.600;8.746;2022-07-26T07:25:33;2.67;;;1.70;;
28547;SDS011;15750;49.600;8.746;2022-07-26T07:28:20;2.10;;;1.95;;
28547;SDS011;15750;49.600;8.746;2022-07-26T07:31:07;2.10;;;1.80;;
28547;SDS011;15750;49.600;8.746;2022-07-26T07:33:56;2.83;;;1.92;;
28547;SDS011;15750;49.600;8.746;2022-07-26T07:36:44;4.82;;;1.70;;
28547;SDS011;15750;49.600;8.746;2022-07-26T07:39:31;2.20;;;1.65;;
28547;SDS011;15750;49.600;8.746;2022-07-26T07:42:22;1.80;;;1.55;;
28547;SDS011;15750;49.600;8.746;2022-07-26T07:45:10;1.85;;;1.65;;
28547;SDS011;15750;49.600;8.746;2022-07-26T07:47:57;2.13;;;1.85;;
28547;SDS011;15750;49.600;8.746;2022-07-26T07:50:46;2.33;;;1.58;;
28547;SDS011;15750;49.600;8.746;2022-07-26T07:53:33;1.70;;;1.60;;
28547;SDS011;15750;49.600;8.746;2022-07-26T07:56:20;2.00;;;1.60;;
28547;SDS011;15750;49.600;8.746;2022-07-26T07:59:08;1.67;;;1.58;;
28547;SDS011;15750;49.600;8.746;2022-07-26T08:01:56;2.55;;;1.70;;
28547;SDS011;15750;49.600;8.746;2022-07-26T08:04:43;2.63;;;1.52;;
28547;SDS011;15750;49.600;8.746;2022-07-26T08:07:32;1.42;;;1.33;;
28547;SDS011;15750;49.600;8.746;2022-07-26T08:10:20;3.45;;;1.70;;
28547;SDS011;15750;49.600;8.746;2022-07-26T08:13:07;2.65;;;1.65;;
28547;SDS011;15750;49.600;8.746;2022-07-26T08:15:55;1.95;;;1.80;;
28547;SDS011;15750;49.600;8.746;2022-07-26T08:18:44;1.60;;;1.50;;
28547;SDS011;15750;49.600;8.746;2022-07-26T08:21:41;1.48;;;1.38;;
28547;SDS011;15750;49.600;8.746;2022-07-26T08:24:32;1.52;;;1.38;;
28547;SDS011;15750;49.600;8.746;2022-07-26T08:27:19;1.40;;;1.30;;
28547;SDS011;15750;49.600;8.746;2022-07-26T08:30:07;1.20;;;1.10;;
28547;SDS011;15750;49.600;8.746;2022-07-26T08:32:56;1.80;;;1.40;;
28547;SDS011;15750;49.600;8.746;2022-07-26T08:35:43;2.08;;;1.52;;
28547;SDS011;15750;49.600;8.746;2022-07-26T08:38:30;2.70;;;1.50;;
28547;SDS011;15750;49.600;8.746;2022-07-26T08:41:19;1.42;;;1.20;;
28547;SDS011;15750;49.600;8.746;2022-07-26T08:44:08;4.28;;;1.40;;
28547;SDS011;15750;49.600;8.746;2022-07-26T08:46:57;3.03;;;1.58;;
28547;SDS011;15750;49.600;8.746;2022-07-26T08:49:44;1.50;;;1.40;;
28547;SDS011;15750;49.600;8.746;2022-07-26T08:52:32;1.65;;;1.55;;
28547;SDS011;15750;49.600;8.746;2022-07-26T08:55:19;2.10;;;1.45;;
28547;SDS011;15750;49.600;8.746;2022-07-26T08:58:08;1.73;;;1.48;;
28547;SDS011;15750;49.600;8.746;2022-07-26T09:01:02;1.88;;;1.40;;
28547;SDS011;15750;49.600;8.746;2022-07-26T09:03:51;1.83;;;1.40;;
28547;SDS011;15750;49.600;8.746;2022-07-26T09:06:38;2.63;;;1.30;;
28547;SDS011;15750;49.600;8.746;2022-07-26T09:09:54;2.03;;;1.20;;
28547;SDS011;15750;49.600;8.746;2022-07-26T09:12:44;3.13;;;1.15;;
28547;SDS011;15750;49.600;8.746;2022-07-26T09:15:32;4.13;;;1.40;;
28547;SDS011;15750;49.600;8.746;2022-07-26T09:18:24;1.55;;;1.42;;
28547;SDS011;15750;49.600;8.746;2022-07-26T09:21:24;1.75;;;1.58;;
28547;SDS011;15750;49.600;8.746;2022-07-26T09:24:28;1.60;;;1.50;;
28547;SDS011;15750;49.600;8.746;2022-07-26T09:27:17;1.52;;;1.42;;
28547;SDS011;15750;49.600;8.746;2022-07-26T09:30:08;2.42;;;1.30;;
28547;SDS011;15750;49.600;8.746;2022-07-26T09:32:59;3.38;;;1.60;;
28547;SDS011;15750;49.600;8.746;2022-07-26T09:35:58;1.67;;;1.48;;
28547;SDS011;15750;49.600;8.746;2022-07-26T09:38:48;1.40;;;1.30;;
28547;SDS011;15750;49.600;8.746;2022-07-26T09:41:37;3.05;;;1.25;;
28547;SDS011;15750;49.600;8.746;2022-07-26T09:44:25;1.42;;;1.30;;
28547;SDS011;15750;49.600;8.746;2022-07-26T09:47:12;1.70;;;1.27;;
28547;SDS011;15750;49.600;8.746;2022-07-26T09:50:11;2.72;;;1.30;;
28547;SDS011;15750;49.600;8.746;2022-07-26T09:53:01;2.67;;;1.30;;
28547;SDS011;15750;49.600;8.746;2022-07-26T09:55:53;3.63;;;1.20;;
28547;SDS011;15750;49.600;8.746;2022-07-26T09:58:42;2.15;;;1.30;;
28547;SDS011;15750;49.600;8.746;2022-07-26T10:01:30;1.38;;;1.27;;
28547;SDS011;15750;49.600;8.746;2022-07-26T10:04:18;2.67;;;1.05;;
28547;SDS011;15750;49.600;8.746;2022-07-26T10:07:08;1.35;;;1.20;;
28547;SDS011;15750;49.600;8.746;2022-07-26T10:09:57;1.45;;;1.35;;
28547;SDS011;15750;49.600;8.746;2022-07-26T10:12:51;1.38;;;1.20;;
28547;SDS011;15750;49.600;8.746;2022-07-26T10:15:40;1.30;;;1.20;;
28547;SDS011;15750;49.600;8.746;2022-07-26T10:18:41;1.50;;;1.38;;
28547;SDS011;15750;49.600;8.746;2022-07-26T10:21:30;1.45;;;1.13;;
28547;SDS011;15750;49.600;8.746;2022-07-26T10:24:24;1.92;;;1.10;;
28547;SDS011;15750;49.600;8.746;2022-07-26T10:30:24;1.40;;;1.30;;
28547;SDS011;15750;49.600;8.746;2022-07-26T10:33:20;3.33;;;1.13;;
28547;SDS011;15750;49.600;8.746;2022-07-26T10:36:20;1.70;;;1.30;;
28547;SDS011;15750;49.600;8.746;2022-07-26T10:39:18;1.98;;;1.25;;
28547;SDS011;15750;49.600;8.746;2022-07-26T10:42:11;2.75;;;1.58;;
28547;SDS011;15750;49.600;8.746;2022-07-26T10:45:00;3.75;;;1.50;;
28547;SDS011;15750;49.600;8.746;2022-07-26T10:48:08;1.63;;;1.38;;
28547;SDS011;15750;49.600;8.746;2022-07-26T10:50:58;1.77;;;1.40;;
28547;SDS011;15750;49.600;8.746;2022-07-26T10:53:57;1.58;;;1.45;;
28547;SDS011;15750;49.600;8.746;2022-07-26T10:56:47;1.63;;;1.33;;
28547;SDS011;15750;49.600;8.746;2022-07-26T10:59:34;1.50;;;1.40;;
28547;SDS011;15750;49.600;8.746;2022-07-26T11:02:40;1.65;;;1.17;;
28547;SDS011;15750;49.600;8.746;2022-07-26T11:05:29;3.30;;;1.83;;
28547;SDS011;15750;49.600;8.746;2022-07-26T11:08:19;2.25;;;1.40;;
28547;SDS011;15750;49.600;8.746;2022-07-26T11:11:25;1.70;;;1.60;;
28547;SDS011;15750;49.600;8.746;2022-07-26T11:14:15;2.33;;;1.55;;
28547;SDS011;15750;49.600;8.746;2022-07-26T11:17:03;1.50;;;1.40;;
28547;SDS011;15750;49.600;8.746;2022-07-26T11:19:51;1.98;;;1.25;;
28547;SDS011;15750;49.600;8.746;2022-07-26T11:22:39;2.08;;;1.38;;
28547;SDS011;15750;49.600;8.746;2022-07-26T11:25:26;2.50;;;1.48;;
28547;SDS011;15750;49.600;8.746;2022-07-26T11:28:14;3.17;;;1.40;;
28547;SDS011;15750;49.600;8.746;2022-07-26T11:31:03;1.50;;;1.23;;
28547;SDS011;15750;49.600;8.746;2022-07-26T11:33:51;1.60;;;1.23;;
28547;SDS011;15750;49.600;8.746;2022-07-26T11:36:40;3.17;;;1.65;;
28547;SDS011;15750;49.600;8.746;2022-07-26T11:39:30;1.35;;;1.25;;
28547;SDS011;15750;49.600;8.746;2022-07-26T11:42:19;3.03;;;1.55;;
28547;SDS011;15750;49.600;8.746;2022-07-26T11:45:08;1.80;;;1.55;;
28547;SDS011;15750;49.600;8.746;2022-07-26T11:47:57;2.20;;;1.45;;
28547;SDS011;15750;49.600;8.746;2022-07-26T11:50:45;2.35;;;1.35;;
28547;SDS011;15750;49.600;8.746;2022-07-26T11:53:34;1.20;;;1.10;;
28547;SDS011;15750;49.600;8.746;2022-07-26T11:56:22;1.38;;;1.27;;
28547;SDS011;15750;49.600;8.746;2022-07-26T11:59:11;1.20;;;1.10;;
28547;SDS011;15750;49.600;8.746;2022-07-26T12:01:59;1.35;;;1.23;;
28547;SDS011;15750;49.600;8.746;2022-07-26T12:05:07;1.25;;;1.00;;
28547;SDS011;15750;49.600;8.746;2022-07-26T12:08:03;1.10;;;1.10;;
28547;SDS011;15750;49.600;8.746;2022-07-26T12:10:52;1.10;;;1.10;;
28547;SDS011;15750;49.600;8.746;2022-07-26T12:13:53;1.60;;;1.20;;
28547;SDS011;15750;49.600;8.746;2022-07-26T12:16:44;1.40;;;1.13;;
28547;SDS011;15750;49.600;8.746;2022-07-26T12:19:32;2.13;;;1.40;;
28547;SDS011;15750;49.600;8.746;2022-07-26T12:22:22;1.80;;;1.30;;
28547;SDS011;15750;49.600;8.746;2022-07-26T12:25:10;1.67;;;1.20;;
28547;SDS011;15750;49.600;8.746;2022-07-26T12:27:57;1.80;;;1.17;;
28547;SDS011;15750;49.600;8.746;2022-07-26T12:30:44;1.50;;;1.30;;
28547;SDS011;15750;49.600;8.746;2022-07-26T12:33:32;1.00;;;1.00;;
28547;SDS011;15750;49.600;8.746;2022-07-26T12:36:33;2.45;;;1.20;;
28547;SDS011;15750;49.600;8.746;2022-07-26T12:39:25;1.27;;;1.17;;
28547;SDS011;15750;49.600;8.746;2022-07-26T12:42:19;2.40;;;1.08;;
28547;SDS011;15750;49.600;8.746;2022-07-26T12:45:18;2.38;;;1.05;;
28547;SDS011;15750;49.600;8.746;2022-07-26T12:48:07;1.20;;;1.10;;
28547;SDS011;15750;49.600;8.746;2022-07-26T12:50:55;1.80;;;1.25;;
28547;SDS011;15750;49.600;8.746;2022-07-26T12:53:43;1.80;;;1.50;;
28547;SDS011;15750;49.600;8.746;2022-07-26T12:56:32;3.10;;;1.40;;
28547;SDS011;15750;49.600;8.746;2022-07-26T12:59:19;1.77;;;1.40;;
28547;SDS011;15750;49.600;8.746;2022-07-26T13:02:06;1.77;;;1.40;;
28547;SDS011;15750;49.600;8.746;2022-07-26T13:04:54;2.00;;;1.38;;
28547;SDS011;15750;49.600;8.746;2022-07-26T13:07:44;2.55;;;1.35;;
28547;SDS011;15750;49.600;8.746;2022-07-26T13:10:35;1.35;;;1.25;;
28547;SDS011;15750;49.600;8.746;2022-07-26T13:13:23;1.88;;;1.40;;
28547;SDS011;15750;49.600;8.746;2022-07-26T13:16:11;1.27;;;1.20;;
28547;SDS011;15750;49.600;8.746;2022-07-26T13:18:58;1.55;;;1.35;;
28547;SDS011;15750;49.600;8.746;2022-07-26T13:21:45;2.95;;;1.40;;
28547;SDS011;15750;49.600;8.746;2022-07-26T13:24:37;1.52;;;1.30;;
28547;SDS011;15750;49.600;8.746;2022-07-26T13:27:25;2.67;;;1.38;;
28547;SDS011;15750;49.600;8.746;2022-07-26T13:30:22;2.55;;;1.30;;
28547;SDS011;15750;49.600;8.746;2022-07-26T13:33:09;3.08;;;1.30;;
28547;SDS011;15750;49.600;8.746;2022-07-26T13:35:56;1.50;;;1.40;;
28547;SDS011;15750;49.600;8.746;2022-07-26T13:38:43;1.30;;;1.20;;
28547;SDS011;15750;49.600;8.746;2022-07-26T13:41:31;2.78;;;1.50;;
28547;SDS011;15750;49.600;8.746;2022-07-26T13:44:22;4.00;;;1.38;;
28547;SDS011;15750;49.600;8.746;2022-07-26T13:47:10;4.85;;;1.50;;
28547;SDS011;15750;49.600;8.746;2022-07-26T13:49:58;1.73;;;1.30;;
28547;SDS011;15750;49.600;8.746;2022-07-26T13:52:45;1.50;;;1.40;;
28547;SDS011;15750;49.600;8.746;2022-07-26T13:55:32;1.30;;;1.20;;
28547;SDS011;15750;49.600;8.746;2022-07-26T13:58:20;1.30;;;1.20;;
28547;SDS011;15750;49.600;8.746;2022-07-26T14:01:07;1.40;;;1.30;;
28547;SDS011;15750;49.600;8.746;2022-07-26T14:03:56;2.95;;;1.48;;
28547;SDS011;15750;49.600;8.746;2022-07-26T14:06:44;1.40;;;1.30;;
28547;SDS011;15750;49.600;8.746;2022-07-26T14:09:31;1.55;;;1.33;;
28547;SDS011;15750;49.600;8.746;2022-07-26T14:12:18;2.30;;;1.40;;
28547;SDS011;15750;49.600;8.746;2022-07-26T14:15:06;1.45;;;1.30;;
28547;SDS011;15750;49.600;8.746;2022-07-26T14:18:01;1.48;;;1.30;;
28547;SDS011;15750;49.600;8.746;2022-07-26T14:20:51;1.88;;;1.30;;
28547;SDS011;15750;49.600;8.746;2022-07-26T14:23:38;1.92;;;1.27;;
28547;SDS011;15750;49.600;8.746;2022-07-26T14:26:26;1.58;;;1.40;;
28547;SDS011;15750;49.600;8.746;2022-07-26T14:29:13;2.45;;;1.98;;
28547;SDS011;15750;49.600;8.746;2022-07-26T14:32:01;2.80;;;1.40;;
28547;SDS011;15750;49.600;8.746;2022-07-26T14:34:49;1.70;;;1.60;;
28547;SDS011;15750;49.600;8.746;2022-07-26T14:37:37;2.00;;;1.40;;
28547;SDS011;15750;49.600;8.746;2022-07-26T14:40:29;1.40;;;1.30;;
28547;SDS011;15750;49.600;8.746;2022-07-26T14:43:17;1.60;;;1.30;;
28547;SDS011;15750;49.600;8.746;2022-07-26T14:46:05;1.88;;;1.60;;
28547;SDS011;15750;49.600;8.746;2022-07-26T14:48:52;1.52;;;1.30;;
28547;SDS011;15750;49.600;8.746;2022-07-26T14:51:39;2.28;;;1.40;;
28547;SDS011;15750;49.600;8.746;2022-07-26T14:54:28;1.60;;;1.13;;
28547;SDS011;15750;49.600;8.746;2022-07-26T14:57:15;1.73;;;1.40;;
28547;SDS011;15750;49.600;8.746;2022-07-26T15:00:04;1.23;;;1.23;;
28547;SDS011;15750;49.600;8.746;2022-07-26T15:02:54;1.40;;;1.30;;
28547;SDS011;15750;49.600;8.746;2022-07-26T15:05:42;1.30;;;1.20;;
28547;SDS011;15750;49.600;8.746;2022-07-26T15:08:29;1.50;;;1.35;;
28547;SDS011;15750;49.600;8.746;2022-07-26T15:11:18;1.52;;;1.30;;
28547;SDS011;15750;49.600;8.746;2022-07-26T15:14:05;1.40;;;1.30;;
28547;SDS011;15750;49.600;8.746;2022-07-26T15:16:53;2.80;;;1.30;;
28547;SDS011;15750;49.600;8.746;2022-07-26T15:19:40;1.40;;;1.30;;
28547;SDS011;15750;49.600;8.746;2022-07-26T15:22:27;1.58;;;1.48;;
28547;SDS011;15750;49.600;8.746;2022-07-26T15:25:15;1.52;;;1.40;;
28547;SDS011;15750;49.600;8.746;2022-07-26T15:28:03;3.50;;;1.17;;
28547;SDS011;15750;49.600;8.746;2022-07-26T15:30:54;2.50;;;1.35;;
28547;SDS011;15750;49.600;8.746;2022-07-26T15:33:41;1.65;;;1.40;;
28547;SDS011;15750;49.600;8.746;2022-07-26T15:36:28;1.40;;;1.30;;
28547;SDS011;15750;49.600;8.746;2022-07-26T15:39:15;1.38;;;1.27;;
28547;SDS011;15750;49.600;8.746;2022-07-26T15:42:03;2.63;;;1.40;;
28547;SDS011;15750;49.600;8.746;2022-07-26T15:44:55;1.33;;;1.13;;
28547;SDS011;15750;49.600;8.746;2022-07-26T15:47:42;2.08;;;1.33;;
28547;SDS011;15750;49.600;8.746;2022-07-26T15:50:43;1.42;;;1.30;;
28547;SDS011;15750;49.600;8.746;2022-07-26T15:53:32;1.40;;;1.30;;
28547;SDS011;15750;49.600;8.746;2022-07-26T15:56:19;1.20;;;1.02;;
28547;SDS011;15750;49.600;8.746;2022-07-26T15:59:07;2.42;;;1.20;;
28547;SDS011;15750;49.600;8.746;2022-07-26T16:01:56;1.67;;;1.58;;
28547;SDS011;15750;49.600;8.746;2022-07-26T16:04:44;1.00;;;1.00;;
28547;SDS011;15750;49.600;8.746;2022-07-26T16:07:32;1.50;;;1.30;;
28547;SDS011;15750;49.600;8.746;2022-07-26T16:10:19;1.52;;;1.33;;
28547;SDS011;15750;49.600;8.746;2022-07-26T16:13:07;1.30;;;1.13;;
28547;SDS011;15750;49.600;8.746;2022-07-26T16:15:55;1.27;;;1.10;;
28547;SDS011;15750;49.600;8.746;2022-07-26T16:18:43;1.90;;;1.40;;
28547;SDS011;15750;49.600;8.746;2022-07-26T16:21:31;1.77;;;1.30;;
28547;SDS011;15750;49.600;8.746;2022-07-26T16:24:18;1.48;;;1.30;;
28547;SDS011;15750;49.600;8.746;2022-07-26T16:27:05;1.83;;;1.50;;
28547;SDS011;15750;49.600;8.746;2022-07-26T16:29:52;1.38;;;1.25;;
28547;SDS011;15750;49.600;8.746;2022-07-26T16:32:40;1.40;;;1.20;;
28547;SDS011;15750;49.600;8.746;2022-07-26T16:35:29;1.30;;;1.20;;
28547;SDS011;15750;49.600;8.746;2022-07-26T16:38:16;1.30;;;1.20;;
28547;SDS011;15750;49.600;8.746;2022-07-26T16:41:04;1.90;;;1.35;;
28547;SDS011;15750;49.600;8.746;2022-07-26T16:43:52;3.05;;;1.40;;
28547;SDS011;15750;49.600;8.746;2022-07-26T16:46:39;1.30;;;1.20;;
28547;SDS011;15750;49.600;8.746;2022-07-26T16:49:28;1.38;;;1.20;;
28547;SDS011;15750;49.600;8.746;2022-07-26T16:52:17;2.35;;;1.20;;
28547;SDS011;15750;49.600;8.746;2022-07-26T16:55:07;1.52;;;1.40;;
28547;SDS011;15750;49.600;8.746;2022-07-26T16:57:56;2.88;;;1.50;;
28547;SDS011;15750;49.600;8.746;2022-07-26T17:00:43;1.55;;;1.23;;
28547;SDS011;15750;49.600;8.746;2022-07-26T17:03:31;2.88;;;1.60;;